createdAt,value
2019-05-02T00:01:20.914Z,41.20
2019-05-02T00:03:47.302Z,41.20
2019-05-02T00:06:13.685Z,41.20
2019-05-02T00:08:40.624Z,41.20
2019-05-02T00:11:08.530Z,41.80
2019-05-02T00:13:34.890Z,41.50
2019-05-02T00:16:01.378Z,41.50
2019-05-02T00:18:31.958Z,41.50
2019-05-02T00:20:57.020Z,41.50
2019-05-02T00:23:27.953Z,41.50
2019-05-02T00:25:54.390Z,41.50
2019-05-02T00:28:20.927Z,41.60
2019-05-02T00:30:47.939Z,41.60
2019-05-02T00:33:14.505Z,41.70
2019-05-02T00:35:46.051Z,41.80
2019-05-02T00:38:09.686Z,41.80
2019-05-02T00:40:35.951Z,41.90
2019-05-02T00:43:02.634Z,42.00
2019-05-02T00:45:29.395Z,42.10
2019-05-02T00:47:57.603Z,42.10
2019-05-02T00:50:24.665Z,42.10
2019-05-02T00:52:51.362Z,42.10
2019-05-02T00:55:17.759Z,42.20
2019-05-02T00:57:44.059Z,42.10
2019-05-02T01:00:13.279Z,42.10
2019-05-02T01:02:44.879Z,42.30
2019-05-02T01:05:12.677Z,42.30
2019-05-02T01:07:39.163Z,42.40
2019-05-02T01:10:06.187Z,42.50
2019-05-02T01:12:32.688Z,42.60
2019-05-02T01:15:03.444Z,42.70
2019-05-02T01:17:31.001Z,42.70
2019-05-02T01:19:55.759Z,42.70
2019-05-02T01:22:22.047Z,42.70
2019-05-02T01:24:48.449Z,42.70
2019-05-02T01:27:17.103Z,42.70
2019-05-02T01:30:01.460Z,42.80
2019-05-02T01:32:30.126Z,42.80
2019-05-02T01:34:57.691Z,42.90
2019-05-02T01:37:32.143Z,43.00
2019-05-02T01:39:58.759Z,43.00
2019-05-02T01:42:25.027Z,43.00
2019-05-02T01:44:52.414Z,43.00
2019-05-02T01:47:18.699Z,43.10
2019-05-02T01:49:44.990Z,43.20
2019-05-02T01:52:11.254Z,43.20
2019-05-02T01:54:40.795Z,43.30
2019-05-02T01:57:08.745Z,43.30
2019-05-02T01:59:35.124Z,43.30
2019-05-02T02:02:01.630Z,43.30
2019-05-02T02:04:29.234Z,43.40
2019-05-02T02:06:55.863Z,43.50
2019-05-02T02:09:22.171Z,43.60
2019-05-02T02:11:48.546Z,43.70
2019-05-02T02:14:18.388Z,43.70
2019-05-02T02:16:43.454Z,43.70
2019-05-02T02:19:17.939Z,43.80
2019-05-02T02:21:52.331Z,43.90
2019-05-02T02:24:25.107Z,43.90
2019-05-02T02:26:49.933Z,43.70
2019-05-02T02:29:16.522Z,44.00
2019-05-02T02:31:46.846Z,44.10
2019-05-02T02:34:11.335Z,44.30
2019-05-02T02:36:38.090Z,44.40
2019-05-02T02:39:06.840Z,44.60
2019-05-02T02:41:34.946Z,44.70
2019-05-02T02:44:20.162Z,44.90
2019-05-02T02:46:48.264Z,44.90
2019-05-02T02:49:21.284Z,45.00
2019-05-02T02:51:43.430Z,45.10
2019-05-02T02:54:11.116Z,45.20
2019-05-02T02:56:40.759Z,45.20
2019-05-02T02:59:06.211Z,45.30
2019-05-02T03:01:32.611Z,45.30
2019-05-02T03:04:01.998Z,45.50
2019-05-02T03:06:27.800Z,45.30
2019-05-02T03:08:54.355Z,45.20
2019-05-02T03:11:25.031Z,45.50
2019-05-02T03:13:54.172Z,45.30
2019-05-02T03:16:23.321Z,45.30
2019-05-02T03:18:49.803Z,45.30
2019-05-02T03:21:20.423Z,45.40
2019-05-02T03:23:44.676Z,45.40
2019-05-02T03:26:14.783Z,45.50
2019-05-02T03:28:40.076Z,45.50
2019-05-02T03:31:21.068Z,45.50
2019-05-02T03:33:52.178Z,45.60
2019-05-02T03:36:03.561Z,45.60
2019-05-02T03:38:32.328Z,46.20
2019-05-02T03:40:59.023Z,45.70
2019-05-02T03:43:27.732Z,45.70
2019-05-02T03:45:54.391Z,45.70
2019-05-02T03:48:25.686Z,45.80
2019-05-02T03:50:49.856Z,45.80
2019-05-02T03:53:17.682Z,46.00
2019-05-02T03:55:45.404Z,46.10
2019-05-02T03:58:14.176Z,46.10
2019-05-02T04:00:40.535Z,46.10
2019-05-02T04:03:07.231Z,46.10
2019-05-02T04:05:39.662Z,46.30
2019-05-02T04:08:03.494Z,46.30
2019-05-02T04:10:52.930Z,46.40
2019-05-02T04:13:15.364Z,46.60
2019-05-02T04:15:44.186Z,46.60
2019-05-02T04:18:15.322Z,46.90
2019-05-02T04:20:43.695Z,46.80
2019-05-02T04:23:10.903Z,46.90
2019-05-02T04:25:37.832Z,46.90
2019-05-02T04:28:05.980Z,46.90
2019-05-02T04:30:33.442Z,46.90
2019-05-02T04:33:00.044Z,47.00
2019-05-02T04:35:28.720Z,47.20
2019-05-02T04:37:54.689Z,47.30
2019-05-02T04:40:21.080Z,47.30
2019-05-02T04:42:53.425Z,47.70
2019-05-02T04:45:26.375Z,47.60
2019-05-02T04:47:54.568Z,47.70
2019-05-02T04:50:17.823Z,47.80
2019-05-02T04:52:51.183Z,47.90
2019-05-02T04:55:19.899Z,48.10
2019-05-02T04:57:46.784Z,48.10
2019-05-02T05:00:11.623Z,48.10
2019-05-02T05:02:39.285Z,48.10
2019-05-02T05:05:05.374Z,48.20
2019-05-02T05:07:41.088Z,48.30
2019-05-02T05:10:03.123Z,48.40
2019-05-02T05:12:32.391Z,48.40
2019-05-02T05:14:57.834Z,48.40
2019-05-02T05:17:25.183Z,48.50
2019-05-02T05:19:52.583Z,48.50
2019-05-02T05:22:18.870Z,48.50
2019-05-02T05:25:02.302Z,48.60
2019-05-02T05:27:29.027Z,48.50
2019-05-02T05:30:02.261Z,48.60
2019-05-02T05:32:24.944Z,48.60
2019-05-02T05:34:51.710Z,48.80
2019-05-02T05:37:18.664Z,48.80
2019-05-02T05:39:50.895Z,48.80
2019-05-02T05:42:13.197Z,48.80
2019-05-02T05:44:39.908Z,48.90
2019-05-02T05:47:07.351Z,48.90
2019-05-02T05:49:33.854Z,49.00
2019-05-02T05:52:03.820Z,49.10
2019-05-02T05:54:33.144Z,49.10
2019-05-02T05:56:57.809Z,49.50
2019-05-02T05:59:28.284Z,49.60
2019-05-02T06:01:53.237Z,49.10
2019-05-02T06:04:23.652Z,49.10
2019-05-02T06:06:48.067Z,49.10
2019-05-02T06:09:14.901Z,49.10
2019-05-02T06:11:41.628Z,49.10
2019-05-02T06:14:07.926Z,49.20
2019-05-02T06:16:35.304Z,49.60
2019-05-02T06:19:03.283Z,49.30
2019-05-02T06:21:29.919Z,49.30
2019-05-02T06:23:56.510Z,49.20
2019-05-02T06:26:23.146Z,49.30
2019-05-02T06:28:49.448Z,49.40
2019-05-02T06:31:17.206Z,49.40
2019-05-02T06:33:43.823Z,49.30
2019-05-02T06:36:10.208Z,49.30
2019-05-02T06:38:36.898Z,49.30
2019-05-02T06:41:03.740Z,49.40
2019-05-02T06:43:29.999Z,49.20
2019-05-02T06:45:56.399Z,49.30
2019-05-02T06:48:22.965Z,49.60
2019-05-02T06:50:49.259Z,49.30
2019-05-02T06:53:16.011Z,49.80
2019-05-02T06:55:42.855Z,49.30
2019-05-02T06:58:09.224Z,49.10
2019-05-02T07:00:48.251Z,49.10
2019-05-02T07:03:05.083Z,49.10
2019-05-02T07:05:33.046Z,49.00
2019-05-02T07:07:59.669Z,49.00
2019-05-02T07:10:26.714Z,49.30
2019-05-02T07:13:09.807Z,48.90
2019-05-02T07:15:23.916Z,48.90
2019-05-02T07:17:50.810Z,48.90
2019-05-02T07:20:17.478Z,48.80
2019-05-02T07:22:45.745Z,48.80
2019-05-02T07:25:15.150Z,48.80
2019-05-02T07:27:41.451Z,48.30
2019-05-02T07:30:09.719Z,49.00
2019-05-02T07:32:36.456Z,48.60
2019-05-02T07:35:05.223Z,48.40
2019-05-02T07:37:31.991Z,48.30
2019-05-02T07:39:58.252Z,48.10
2019-05-02T07:42:24.639Z,47.90
2019-05-02T07:44:50.928Z,47.60
2019-05-02T07:47:17.619Z,47.50
2019-05-02T07:49:44.390Z,47.70
2019-05-02T07:52:10.887Z,47.80
2019-05-02T07:54:37.283Z,47.80
2019-05-02T07:57:03.883Z,47.40
2019-05-02T07:59:30.246Z,47.00
2019-05-02T08:01:56.547Z,46.90
2019-05-02T08:04:23.027Z,46.80
2019-05-02T08:06:49.702Z,46.60
2019-05-02T08:09:16.157Z,46.60
2019-05-02T08:11:42.899Z,46.60
2019-05-02T08:14:09.197Z,46.70
2019-05-02T08:16:35.823Z,46.70
2019-05-02T08:19:05.473Z,46.70
2019-05-02T08:21:32.495Z,46.70
2019-05-02T08:24:02.200Z,46.60
2019-05-02T08:26:29.387Z,46.50
2019-05-02T08:29:03.858Z,46.60
2019-05-02T08:31:30.420Z,46.60
2019-05-02T08:33:57.266Z,46.50
2019-05-02T08:36:23.532Z,46.50
2019-05-02T08:38:53.708Z,46.50
2019-05-02T08:41:20.055Z,46.30
2019-05-02T08:43:46.523Z,46.10
2019-05-02T08:46:14.433Z,46.00
2019-05-02T08:48:43.784Z,46.00
2019-05-02T08:51:10.656Z,45.90
2019-05-02T08:53:52.050Z,45.80
2019-05-02T08:56:21.283Z,45.60
2019-05-02T08:58:49.907Z,45.60
2019-05-02T09:01:15.474Z,45.70
2019-05-02T09:03:55.256Z,45.50
2019-05-02T09:06:32.709Z,45.20
2019-05-02T09:08:59.118Z,45.10
2019-05-02T09:11:25.392Z,45.40
2019-05-02T09:13:52.644Z,45.70
2019-05-02T09:16:28.538Z,46.00
2019-05-02T09:18:54.775Z,46.40
2019-05-02T09:21:22.042Z,46.80
2019-05-02T09:23:48.471Z,46.60
2019-05-02T09:26:14.938Z,46.30
2019-05-02T09:28:42.270Z,45.70
2019-05-02T09:31:09.016Z,44.80
2019-05-02T09:33:41.141Z,44.40
2019-05-02T09:36:04.882Z,44.90
2019-05-02T09:38:32.904Z,45.70
2019-05-02T09:41:13.830Z,45.80
2019-05-02T09:43:29.394Z,45.70
2019-05-02T09:45:57.379Z,45.40
2019-05-02T09:48:26.820Z,44.90
2019-05-02T09:50:52.841Z,44.10
2019-05-02T09:53:20.610Z,43.50
2019-05-02T09:55:50.267Z,42.50
2019-05-02T09:58:21.048Z,42.10
2019-05-02T10:01:02.022Z,41.80
2019-05-02T10:03:31.887Z,41.60
2019-05-02T10:05:58.534Z,41.60
2019-05-02T10:08:25.013Z,41.70
2019-05-02T10:10:52.233Z,41.60
2019-05-02T10:13:18.697Z,41.50
2019-05-02T10:15:45.891Z,41.00
2019-05-02T10:18:14.593Z,41.00
2019-05-02T10:20:41.951Z,42.20
2019-05-02T10:23:12.022Z,42.60
2019-05-02T10:25:38.835Z,42.40
2019-05-02T10:28:06.145Z,41.90
2019-05-02T10:30:36.004Z,41.60
2019-05-02T10:33:03.193Z,40.60
2019-05-02T10:35:38.876Z,39.60
2019-05-02T10:37:59.896Z,38.60
2019-05-02T10:40:26.306Z,35.30
2019-05-02T10:42:52.803Z,36.20
2019-05-02T10:45:19.590Z,35.50
2019-05-02T10:47:45.849Z,35.40
2019-05-02T10:50:27.201Z,35.80
2019-05-02T10:52:53.578Z,35.70
2019-05-02T10:55:22.268Z,35.50
2019-05-02T10:57:48.886Z,35.10
2019-05-02T11:00:18.050Z,34.80
2019-05-02T11:02:52.556Z,34.60
2019-05-02T11:05:24.705Z,34.40
2019-05-02T11:07:49.337Z,34.30
2019-05-02T11:10:16.287Z,34.30
2019-05-02T11:12:46.932Z,34.20
2019-05-02T11:15:26.731Z,31.70
2019-05-02T11:17:52.936Z,33.30
2019-05-02T11:20:19.476Z,33.30
2019-05-02T11:22:45.845Z,33.30
2019-05-02T11:25:12.476Z,33.30
2019-05-02T11:27:39.135Z,33.40
2019-05-02T11:30:07.283Z,32.10
2019-05-02T11:32:33.819Z,31.40
2019-05-02T11:35:00.115Z,31.40
2019-05-02T11:37:26.638Z,32.10
2019-05-02T11:39:59.358Z,32.40
2019-05-02T11:42:23.312Z,32.60
2019-05-02T11:44:52.276Z,32.70
2019-05-02T11:47:24.935Z,32.70
2019-05-02T11:49:51.244Z,31.40
2019-05-02T11:52:15.162Z,32.10
2019-05-02T11:54:44.681Z,31.70
2019-05-02T11:57:11.502Z,31.70
2019-05-02T11:59:37.827Z,31.70
2019-05-02T12:02:19.068Z,31.50
2019-05-02T12:04:47.400Z,30.20
2019-05-02T12:07:14.786Z,29.40
2019-05-02T12:09:44.260Z,30.00
2019-05-02T12:12:09.559Z,30.00
2019-05-02T12:14:36.531Z,30.00
2019-05-02T12:17:03.435Z,30.20
2019-05-02T12:19:32.119Z,30.10
2019-05-02T12:21:58.435Z,30.10
2019-05-02T12:24:24.804Z,29.00
2019-05-02T12:26:52.870Z,29.60
2019-05-02T12:29:34.600Z,29.70
2019-05-02T12:32:11.990Z,29.80
2019-05-02T12:34:38.705Z,29.90
2019-05-02T12:37:04.999Z,29.90
2019-05-02T12:39:31.733Z,29.70
2019-05-02T12:41:58.458Z,29.50
2019-05-02T12:44:25.071Z,29.40
2019-05-02T12:46:51.897Z,29.10
2019-05-02T12:49:25.378Z,29.20
2019-05-02T12:51:48.043Z,29.00
2019-05-02T12:54:14.330Z,28.90
2019-05-02T12:56:41.856Z,28.90
2019-05-02T12:59:08.747Z,29.30
2019-05-02T13:01:35.302Z,28.90
2019-05-02T13:04:03.802Z,28.70
2019-05-02T13:06:30.373Z,28.50
2019-05-02T13:08:58.572Z,28.60
2019-05-02T13:11:42.155Z,28.40
2019-05-02T13:14:16.930Z,28.50
2019-05-02T13:16:38.435Z,28.40
2019-05-02T13:19:06.285Z,28.30
2019-05-02T13:21:45.000Z,26.60
2019-05-02T13:24:29.170Z,27.60
2019-05-02T13:26:59.329Z,27.60
2019-05-02T13:29:22.583Z,27.70
2019-05-02T13:31:53.979Z,27.80
2019-05-02T13:34:22.521Z,27.60
2019-05-02T13:36:51.923Z,27.80
2019-05-02T13:39:23.595Z,27.60
2019-05-02T13:41:52.040Z,27.70
2019-05-02T13:44:23.560Z,27.60
2019-05-02T13:46:50.442Z,27.50
2019-05-02T13:49:16.844Z,27.50
2019-05-02T13:51:43.346Z,27.50
2019-05-02T13:54:09.722Z,27.30
2019-05-02T13:56:52.325Z,27.10
2019-05-02T13:59:18.584Z,27.10
2019-05-02T14:01:48.076Z,27.10
2019-05-02T14:04:15.190Z,26.90
2019-05-02T14:06:42.155Z,26.80
2019-05-02T14:09:25.307Z,26.70
2019-05-02T14:12:05.753Z,26.70
2019-05-02T14:14:32.634Z,26.70
2019-05-02T14:16:59.266Z,27.20
2019-05-02T14:19:25.549Z,26.80
2019-05-02T14:21:52.179Z,26.80
2019-05-02T14:24:23.051Z,27.00
2019-05-02T14:26:52.392Z,27.20
2019-05-02T14:29:19.110Z,27.30
2019-05-02T14:31:45.515Z,27.40
2019-05-02T14:34:28.937Z,27.60
2019-05-02T14:36:59.216Z,27.80
2019-05-02T14:39:24.194Z,27.90
2019-05-02T14:41:52.449Z,28.10
2019-05-02T14:44:23.315Z,28.10
2019-05-02T14:46:47.598Z,28.10
2019-05-02T14:49:16.669Z,28.10
2019-05-02T14:51:44.654Z,28.10
2019-05-02T14:54:12.061Z,28.10
2019-05-02T14:56:43.363Z,28.20
2019-05-02T14:59:13.727Z,28.30
2019-05-02T15:01:37.660Z,28.30
2019-05-02T15:04:08.131Z,28.30
2019-05-02T15:06:33.770Z,28.50
2019-05-02T15:09:02.375Z,28.80
2019-05-02T15:11:32.717Z,28.80
2019-05-02T15:13:58.598Z,28.80
2019-05-02T15:16:39.031Z,28.80
2019-05-02T15:18:56.881Z,28.40
2019-05-02T15:21:22.856Z,28.40
2019-05-02T15:23:54.447Z,27.80
2019-05-02T15:26:19.095Z,27.90
2019-05-02T15:28:45.741Z,27.90
2019-05-02T15:31:28.497Z,27.70
2019-05-02T15:34:05.359Z,27.50
2019-05-02T15:36:32.359Z,27.30
2019-05-02T15:41:27.487Z,27.00
2019-05-02T15:43:53.788Z,27.40
2019-05-02T15:46:23.843Z,27.20
2019-05-02T15:48:48.252Z,27.30
2019-05-02T15:51:15.066Z,27.40
2019-05-02T15:54:03.061Z,27.40
2019-05-02T15:56:23.716Z,27.30
2019-05-02T15:58:48.580Z,27.30
2019-05-02T16:01:36.791Z,27.30
2019-05-02T16:04:04.752Z,27.30
2019-05-02T16:06:33.823Z,27.50
2019-05-02T16:08:59.503Z,27.60
2019-05-02T16:11:26.171Z,27.70
2019-05-02T16:13:55.649Z,27.80
2019-05-02T16:16:21.965Z,27.90
2019-05-02T16:18:49.535Z,27.80
2019-05-02T16:21:22.655Z,27.90
2019-05-02T16:24:11.175Z,27.90
2019-05-02T16:26:37.146Z,27.80
2019-05-02T16:29:02.929Z,27.70
2019-05-02T16:31:32.518Z,27.70
2019-05-02T16:34:02.336Z,27.60
2019-05-02T16:36:33.815Z,27.60
2019-05-02T16:38:57.358Z,27.70
2019-05-02T16:41:24.023Z,27.80
2019-05-02T16:43:51.838Z,27.90
2019-05-02T16:46:18.487Z,27.90
2019-05-02T16:48:44.759Z,28.10
2019-05-02T16:51:27.556Z,28.20
2019-05-02T16:53:39.572Z,28.40
2019-05-02T16:56:07.222Z,28.50
2019-05-02T16:58:45.974Z,28.50
2019-05-02T17:01:12.249Z,28.60
2019-05-02T17:03:39.182Z,28.60
2019-05-02T17:06:05.967Z,28.80
2019-05-02T17:08:37.423Z,28.90
2019-05-02T17:11:06.047Z,29.00
2019-05-02T17:13:35.655Z,29.10
2019-05-02T17:16:06.937Z,29.20
2019-05-02T17:18:29.727Z,29.30
2019-05-02T17:20:57.012Z,29.30
2019-05-02T17:23:23.587Z,29.40
2019-05-02T17:25:49.980Z,29.40
2019-05-02T17:28:16.266Z,29.50
2019-05-02T17:30:43.131Z,29.70
2019-05-02T17:33:14.423Z,30.30
2019-05-02T17:35:57.800Z,30.60
2019-05-02T17:38:29.087Z,30.90
2019-05-02T17:40:54.363Z,31.60
2019-05-02T17:43:22.539Z,31.90
2019-05-02T17:45:48.948Z,32.70
2019-05-02T17:48:17.540Z,32.90
2019-05-02T17:50:54.337Z,33.40
2019-05-02T17:53:16.542Z,33.90
2019-05-02T17:55:44.408Z,34.70
2019-05-02T17:58:12.958Z,34.50
2019-05-02T18:00:47.510Z,34.70
2019-05-02T18:03:15.195Z,35.10
2019-05-02T18:05:41.885Z,35.20
2019-05-02T18:08:10.760Z,35.50
2019-05-02T18:10:37.199Z,35.60
2019-05-02T18:13:04.078Z,36.00
2019-05-02T18:15:34.791Z,36.30
2019-05-02T18:17:59.888Z,36.90
2019-05-02T18:20:27.438Z,36.40
2019-05-02T18:22:54.127Z,37.30
2019-05-02T18:25:21.636Z,37.00
2019-05-02T18:27:49.140Z,37.10
2019-05-02T18:30:22.847Z,37.60
2019-05-02T18:32:46.569Z,37.40
2019-05-02T18:35:13.299Z,37.50
2019-05-02T18:37:42.819Z,38.30
2019-05-02T18:40:08.362Z,37.90
2019-05-02T18:42:34.789Z,38.10
2019-05-02T18:45:05.231Z,38.30
2019-05-02T18:47:33.442Z,38.40
2019-05-02T18:50:04.378Z,38.70
2019-05-02T18:52:38.361Z,38.80
2019-05-02T18:54:58.774Z,39.20
2019-05-02T18:57:26.095Z,39.10
2019-05-02T18:59:56.454Z,39.30
2019-05-02T19:02:26.442Z,39.30
2019-05-02T19:04:51.653Z,39.50
2019-05-02T19:07:30.278Z,39.70
2019-05-02T19:09:50.991Z,39.80
2019-05-02T19:12:22.695Z,40.00
2019-05-02T19:14:43.229Z,40.10
2019-05-02T19:17:09.510Z,40.20
2019-05-02T19:19:36.943Z,40.20
2019-05-02T19:22:07.520Z,40.40
2019-05-02T19:24:34.877Z,40.50
2019-05-02T19:27:02.195Z,40.70
2019-05-02T19:29:31.648Z,40.70
2019-05-02T19:31:58.056Z,40.90
2019-05-02T19:34:26.833Z,41.00
2019-05-02T19:36:53.049Z,41.10
2019-05-02T19:39:19.645Z,41.20
2019-05-02T19:41:45.939Z,41.40
2019-05-02T19:44:15.110Z,41.40
2019-05-02T19:46:42.188Z,41.40
2019-05-02T19:49:12.438Z,41.70
2019-05-02T19:51:37.349Z,41.70
2019-05-02T19:54:06.958Z,41.80
2019-05-02T19:56:43.256Z,41.80
2019-05-02T19:59:02.686Z,42.00
2019-05-02T20:01:29.440Z,42.10
2019-05-02T20:03:56.751Z,42.20
2019-05-02T20:06:24.487Z,42.20
2019-05-02T20:08:52.535Z,42.80
2019-05-02T20:11:21.819Z,42.40
2019-05-02T20:13:47.919Z,43.00
2019-05-02T20:16:22.367Z,42.60
2019-05-02T20:18:48.610Z,42.70
2019-05-02T20:21:23.314Z,42.80
2019-05-02T20:23:45.542Z,42.90
2019-05-02T20:26:15.537Z,43.00
2019-05-02T20:28:42.150Z,43.50
2019-05-02T20:31:08.328Z,43.10
2019-05-02T20:33:34.686Z,43.30
2019-05-02T20:36:02.208Z,43.40
2019-05-02T20:38:28.573Z,43.40
2019-05-02T20:40:55.046Z,43.50
2019-05-02T20:43:22.605Z,43.40
2019-05-02T20:45:49.406Z,44.00
2019-05-02T20:48:15.903Z,43.60
2019-05-02T20:50:42.775Z,43.70
2019-05-02T20:53:12.019Z,43.60
2019-05-02T20:55:37.751Z,43.60
2019-05-02T20:58:04.522Z,43.80
2019-05-02T21:00:32.224Z,43.80
2019-05-02T21:02:58.895Z,43.90
2019-05-02T21:05:27.886Z,44.00
2019-05-02T21:08:02.166Z,44.10
2019-05-02T21:10:33.386Z,44.30
2019-05-02T21:13:01.951Z,44.20
2019-05-02T21:15:28.312Z,44.20
2019-05-02T21:17:54.803Z,44.40
2019-05-02T21:20:21.887Z,44.50
2019-05-02T21:22:48.728Z,44.50
2019-05-02T21:25:15.472Z,44.60
2019-05-02T21:27:41.980Z,44.70
2019-05-02T21:30:12.150Z,44.70
2019-05-02T21:32:38.711Z,44.90
2019-05-02T21:35:05.619Z,44.80
2019-05-02T21:37:32.051Z,44.80
2019-05-02T21:39:58.674Z,44.90
2019-05-02T21:42:25.042Z,45.00
2019-05-02T21:44:51.771Z,45.00
2019-05-02T21:47:18.369Z,45.30
2019-05-02T21:49:47.075Z,45.60
2019-05-02T21:52:32.143Z,45.20
2019-05-02T21:55:15.797Z,45.30
2019-05-02T21:58:02.698Z,45.20
2019-05-02T22:00:48.691Z,45.20
2019-05-02T22:03:15.375Z,45.30
2019-05-02T22:05:42.871Z,45.40
2019-05-02T22:08:09.438Z,45.50
2019-05-02T22:10:36.678Z,45.70
2019-05-02T22:13:03.149Z,45.50
2019-05-02T22:15:29.547Z,45.60
2019-05-02T22:17:55.837Z,46.10
2019-05-02T22:20:22.983Z,46.60
2019-05-02T22:22:49.375Z,46.10
2019-05-02T22:25:15.656Z,46.10
2019-05-02T22:27:42.218Z,46.40
2019-05-02T22:30:08.804Z,46.50
2019-05-02T22:32:35.070Z,46.60
2019-05-02T22:35:01.941Z,46.60
2019-05-02T22:37:28.331Z,46.60
2019-05-02T22:39:56.723Z,46.70
2019-05-02T22:42:23.191Z,47.50
2019-05-02T22:44:49.585Z,47.10
2019-05-02T22:47:15.858Z,46.90
2019-05-02T22:49:42.442Z,46.90
2019-05-02T22:52:08.962Z,47.10
2019-05-02T22:54:35.291Z,46.80
2019-05-02T22:57:02.548Z,47.10
2019-05-02T22:59:29.081Z,46.90
2019-05-02T23:01:56.438Z,46.90
2019-05-02T23:04:23.542Z,47.40
2019-05-02T23:06:52.731Z,46.80
2019-05-02T23:09:18.755Z,46.70
2019-05-02T23:11:45.142Z,46.60
2019-05-02T23:14:11.451Z,46.90
2019-05-02T23:16:38.003Z,46.70
2019-05-02T23:19:04.579Z,46.60
2019-05-02T23:21:32.593Z,46.70
2019-05-02T23:24:01.667Z,46.70
2019-05-02T23:26:47.238Z,47.20
2019-05-02T23:29:15.410Z,46.80
2019-05-02T23:31:42.288Z,47.00
2019-05-02T23:34:09.203Z,46.90
2019-05-02T23:36:35.844Z,46.80
2019-05-02T23:39:05.451Z,46.60
2019-05-02T23:41:32.916Z,46.70
2019-05-02T23:43:59.405Z,46.50
2019-05-02T23:46:25.818Z,46.30
2019-05-02T23:48:52.676Z,46.40
2019-05-02T23:51:19.203Z,46.40
2019-05-02T23:53:45.606Z,46.40
2019-05-02T23:56:13.145Z,46.40
2019-05-02T23:58:39.995Z,46.40
